Time;durP1;ratioP1;P1;durP2;ratioP2;P2;SDS_P1;SDS_P2;PMS_P1;PMS_P2;Temp;Humidity;BMP_temperature;BMP_pressure;BME280_temperature;BME280_humidity;BME280_pressure;Samples;Min_cycle;Max_cycle;Signal;HPM_P1;HPM_P2
2022/07/21 00:01:15;;;;;;;2.10;1.60;;;20.70;99.90;;;;;;4931802;29;20418;-67
2022/07/21 00:03:40;;;;;;;0.40;0.40;;;20.70;99.90;;;;;;4932266;29;20503;-67
2022/07/21 00:06:07;;;;;;;0.50;0.50;;;20.70;99.90;;;;;;4931866;29;20404;-67
2022/07/21 00:08:33;;;;;;;0.50;0.50;;;20.70;99.90;;;;;;4933100;29;20449;-66
2022/07/21 00:10:59;;;;;;;0.40;0.40;;;20.70;99.90;;;;;;4947076;29;20428;-67
2022/07/21 00:13:24;;;;;;;0.90;0.90;;;20.70;99.90;;;;;;4932337;29;21030;-67
2022/07/21 00:15:51;;;;;;;0.80;0.70;;;20.80;99.90;;;;;;4936176;29;20849;-67
2022/07/21 00:18:18;;;;;;;0.60;0.60;;;20.80;99.90;;;;;;4935775;29;20442;-67
2022/07/21 00:20:44;;;;;;;0.60;0.60;;;20.80;99.90;;;;;;4936316;29;20781;-66
2022/07/21 00:23:10;;;;;;;0.70;0.70;;;20.70;99.90;;;;;;4938990;29;20548;-67
2022/07/21 00:25:36;;;;;;;0.70;0.70;;;20.70;99.90;;;;;;4955432;29;20473;-67
2022/07/21 00:28:03;;;;;;;0.40;0.30;;;20.60;99.90;;;;;;4955300;29;20843;-67
2022/07/21 00:30:29;;;;;;;0.40;0.30;;;20.60;99.90;;;;;;4954307;29;20521;-67
2022/07/21 00:32:55;;;;;;;0.40;0.30;;;20.60;99.90;;;;;;4955149;29;20378;-65
2022/07/21 00:35:21;;;;;;;1.20;1.20;;;20.50;99.90;;;;;;4952848;29;20418;-66
2022/07/21 00:37:47;;;;;;;0.40;0.30;;;20.50;99.90;;;;;;4947182;29;20476;-64
2022/07/21 00:40:13;;;;;;;0.40;0.30;;;20.50;99.90;;;;;;4934773;29;20483;-66
2022/07/21 00:42:39;;;;;;;0.40;0.30;;;20.50;99.90;;;;;;4935776;29;20402;-66
2022/07/21 00:45:07;;;;;;;2.20;1.00;;;20.50;99.90;;;;;;4935866;29;20427;-66
2022/07/21 00:47:32;;;;;;;0.70;0.70;;;20.50;99.90;;;;;;4935361;29;20388;-68
2022/07/21 00:50:00;;;;;;;0.40;0.30;;;20.50;99.90;;;;;;4935621;29;20451;-66
2022/07/21 00:52:25;;;;;;;0.60;0.60;;;20.50;99.90;;;;;;4934517;29;20415;-65
2022/07/21 00:54:52;;;;;;;0.40;0.30;;;20.40;99.90;;;;;;4935069;29;20478;-66
2022/07/21 00:57:17;;;;;;;0.60;0.60;;;20.40;99.90;;;;;;4934765;29;20383;-66
2022/07/21 00:59:44;;;;;;;0.40;0.20;;;20.40;99.90;;;;;;4935479;29;20475;-66
2022/07/21 01:02:11;;;;;;;0.50;0.50;;;20.40;99.90;;;;;;4934647;29;20431;-66
2022/07/21 01:04:36;;;;;;;0.40;0.30;;;20.40;99.90;;;;;;4935225;29;20474;-66
2022/07/21 01:07:04;;;;;;;0.60;0.60;;;20.30;99.90;;;;;;4935197;29;20495;-66
2022/07/21 01:09:31;;;;;;;0.40;0.30;;;20.30;99.90;;;;;;4934112;29;20864;-67
2022/07/21 01:11:58;;;;;;;0.40;0.40;;;20.40;99.90;;;;;;4951671;29;20852;-67
2022/07/21 01:14:24;;;;;;;0.50;0.50;;;20.40;99.90;;;;;;4949385;29;20383;-67
2022/07/21 01:16:51;;;;;;;0.40;0.30;;;20.30;99.90;;;;;;4934908;29;20427;-66
2022/07/21 01:19:17;;;;;;;1.00;1.00;;;20.30;99.90;;;;;;4934355;29;20407;-66
2022/07/21 01:21:46;;;;;;;0.60;0.60;;;20.30;99.90;;;;;;4935270;29;20388;-67
2022/07/21 01:24:12;;;;;;;0.40;0.30;;;20.40;99.90;;;;;;4934220;29;20410;-66
2022/07/21 01:26:43;;;;;;;1.00;0.85;;;20.40;99.90;;;;;;4939167;29;20401;-66
2022/07/21 01:29:11;;;;;;;0.40;0.40;;;20.40;99.90;;;;;;4952216;29;20739;-67
2022/07/21 01:31:38;;;;;;;2.10;1.50;;;20.40;99.90;;;;;;4934377;29;20425;-67
2022/07/21 01:34:04;;;;;;;0.40;0.30;;;20.40;99.90;;;;;;4934561;29;20407;-67
2022/07/21 01:36:30;;;;;;;0.50;0.50;;;20.30;99.90;;;;;;4933739;29;20399;-67
2022/07/21 01:41:40;;;;;;;0.88;0.73;;;20.40;99.90;;;;;;4923625;29;20458;-67
2022/07/21 01:44:08;;;;;;;0.40;0.30;;;20.50;99.90;;;;;;4934473;29;20895;-68
2022/07/21 01:46:43;;;;;;;0.40;0.32;;;20.30;99.90;;;;;;4933544;29;20411;-68
2022/07/21 01:49:10;;;;;;;0.40;0.30;;;20.10;99.90;;;;;;4933789;29;20931;-68
2022/07/21 01:51:35;;;;;;;1.80;1.10;;;20.10;99.90;;;;;;4933097;29;20907;-68
2022/07/21 01:54:01;;;;;;;0.73;0.70;;;20.10;99.90;;;;;;4934207;29;20416;-68
2022/07/21 01:56:27;;;;;;;0.40;0.30;;;20.10;99.90;;;;;;4933130;29;20430;-68
2022/07/21 01:58:56;;;;;;;1.10;1.10;;;20.00;99.90;;;;;;4934052;29;20399;-68
2022/07/21 02:01:26;;;;;;;0.90;0.80;;;19.90;99.90;;;;;;4932657;29;20773;-68
2022/07/21 02:03:53;;;;;;;0.50;0.40;;;20.00;99.90;;;;;;4934255;29;20407;-68
2022/07/21 02:06:19;;;;;;;0.40;0.20;;;19.90;99.90;;;;;;4933103;29;20387;-68
2022/07/21 02:08:45;;;;;;;0.40;0.30;;;19.90;99.90;;;;;;4934219;29;20911;-68
2022/07/21 02:11:12;;;;;;;0.40;0.30;;;19.80;99.90;;;;;;4933864;29;20427;-68
2022/07/21 02:13:38;;;;;;;1.60;1.00;;;19.90;99.90;;;;;;4916463;29;20423;-68
2022/07/21 02:16:04;;;;;;;0.80;0.80;;;19.80;99.90;;;;;;4934058;29;20581;-68
2022/07/21 02:18:30;;;;;;;0.40;0.30;;;19.70;99.90;;;;;;4933007;29;20415;-68
2022/07/21 02:20:56;;;;;;;0.40;0.30;;;19.80;99.90;;;;;;4933729;29;20490;-68
2022/07/21 02:23:23;;;;;;;0.90;0.90;;;19.70;99.90;;;;;;4932694;29;20423;-68
2022/07/21 02:25:51;;;;;;;0.40;0.30;;;19.70;99.90;;;;;;4933829;29;20825;-68
2022/07/21 02:28:17;;;;;;;0.40;0.20;;;19.70;99.90;;;;;;4916223;29;20434;-70
2022/07/21 02:30:44;;;;;;;0.70;0.70;;;19.80;99.90;;;;;;4933765;29;20428;-68
2022/07/21 02:33:09;;;;;;;1.10;0.52;;;19.70;99.90;;;;;;4933492;29;20395;-68
2022/07/21 02:35:35;;;;;;;0.70;0.70;;;19.80;99.90;;;;;;4915866;29;20860;-68
2022/07/21 02:38:01;;;;;;;0.40;0.30;;;19.90;99.90;;;;;;4932701;29;20546;-68
2022/07/21 02:40:27;;;;;;;0.40;0.20;;;19.90;99.90;;;;;;4932552;29;20469;-68
2022/07/21 02:42:53;;;;;;;1.00;1.00;;;20.00;99.90;;;;;;4948695;29;20437;-68
2022/07/21 02:45:18;;;;;;;0.40;0.20;;;19.90;99.90;;;;;;4952407;29;20393;-68
2022/07/21 02:47:56;;;;;;;0.75;0.63;;;19.90;99.90;;;;;;4952439;29;20397;-68
2022/07/21 02:50:24;;;;;;;0.40;0.32;;;19.90;99.90;;;;;;4952007;29;20433;-68
2022/07/21 02:52:49;;;;;;;0.60;0.60;;;20.10;99.90;;;;;;4952626;29;20392;-68
2022/07/21 02:55:15;;;;;;;0.40;0.30;;;20.10;99.90;;;;;;4952402;29;20410;-68
2022/07/21 02:57:41;;;;;;;0.40;0.28;;;20.20;99.90;;;;;;4938409;29;20415;-68
2022/07/21 03:00:10;;;;;;;0.90;0.90;;;20.20;99.90;;;;;;4932986;29;20399;-68
2022/07/21 03:02:35;;;;;;;0.40;0.30;;;20.10;99.90;;;;;;4932221;29;20780;-68
2022/07/21 03:05:02;;;;;;;0.40;0.20;;;20.20;99.90;;;;;;4932952;29;20400;-68
2022/07/21 03:07:27;;;;;;;0.40;0.30;;;20.40;99.90;;;;;;4915375;29;20392;-68
2022/07/21 03:09:54;;;;;;;0.40;0.40;;;20.50;99.90;;;;;;4932449;29;20399;-68
2022/07/21 03:12:19;;;;;;;0.50;0.50;;;20.50;99.90;;;;;;4932328;29;20900;-68
2022/07/21 03:14:45;;;;;;;0.40;0.30;;;20.60;99.90;;;;;;4932599;29;20467;-68
2022/07/21 03:17:11;;;;;;;0.77;0.77;;;20.70;99.90;;;;;;4933334;29;20387;-68
2022/07/21 03:19:37;;;;;;;2.20;0.60;;;20.50;99.90;;;;;;4931903;29;20739;-68
2022/07/21 03:22:03;;;;;;;0.90;0.90;;;20.20;99.90;;;;;;4932577;29;20966;-68
2022/07/21 03:24:29;;;;;;;0.45;0.38;;;20.10;99.90;;;;;;4931869;29;20729;-68
2022/07/21 03:26:56;;;;;;;0.50;0.50;;;20.20;99.90;;;;;;4932758;29;20733;-68
2022/07/21 03:29:22;;;;;;;1.00;0.70;;;20.10;99.90;;;;;;4931812;29;20506;-68
2022/07/21 03:31:48;;;;;;;1.40;1.33;;;20.00;99.90;;;;;;4916317;29;20924;-68
2022/07/21 03:34:14;;;;;;;0.40;0.20;;;19.90;99.90;;;;;;4932966;29;20487;-68
2022/07/21 03:36:40;;;;;;;0.40;0.20;;;19.80;99.90;;;;;;4917173;29;20403;-68
2022/07/21 03:39:06;;;;;;;0.60;0.60;;;19.80;99.90;;;;;;4932663;29;20396;-68
2022/07/21 03:41:32;;;;;;;1.10;1.10;;;19.60;99.90;;;;;;4932149;29;20434;-68
2022/07/21 03:43:57;;;;;;;0.60;0.60;;;19.60;99.90;;;;;;4932650;29;20399;-68
2022/07/21 03:46:23;;;;;;;0.60;0.60;;;19.50;99.90;;;;;;4932192;29;20399;-68
2022/07/21 03:48:49;;;;;;;0.50;0.50;;;19.40;99.90;;;;;;4945116;29;20525;-69
2022/07/21 03:51:15;;;;;;;0.40;0.40;;;19.30;99.90;;;;;;4951106;29;20423;-68
2022/07/21 03:53:41;;;;;;;0.40;0.40;;;19.40;99.90;;;;;;4935812;29;21748;-69
2022/07/21 03:56:06;;;;;;;0.60;0.60;;;19.30;99.90;;;;;;4936334;29;20426;-68
2022/07/21 03:58:32;;;;;;;1.10;1.10;;;19.30;99.90;;;;;;4935270;29;20433;-68
2022/07/21 04:00:58;;;;;;;0.40;0.40;;;19.30;99.90;;;;;;4936181;29;20471;-68
2022/07/21 04:03:23;;;;;;;0.40;0.20;;;19.30;99.90;;;;;;4935664;29;20725;-68
2022/07/21 04:05:49;;;;;;;0.40;0.40;;;19.30;99.90;;;;;;4936737;29;20388;-68
2022/07/21 04:08:15;;;;;;;1.00;1.00;;;19.30;99.90;;;;;;4936522;29;20431;-68
2022/07/21 04:10:42;;;;;;;0.50;0.50;;;19.30;99.90;;;;;;4943780;29;20926;-69
2022/07/21 04:13:11;;;;;;;0.40;0.30;;;19.20;99.90;;;;;;4955735;29;20460;-68
2022/07/21 04:15:37;;;;;;;0.70;0.70;;;19.20;99.90;;;;;;4940088;29;20396;-68
2022/07/21 04:18:04;;;;;;;0.40;0.30;;;19.10;99.90;;;;;;4936476;29;20423;-69
2022/07/21 04:20:31;;;;;;;0.40;0.20;;;19.10;99.90;;;;;;4935872;29;20396;-69
2022/07/21 04:22:56;;;;;;;0.40;0.20;;;19.10;99.90;;;;;;4936427;29;20396;-68
2022/07/21 04:25:22;;;;;;;0.40;0.40;;;19.00;99.90;;;;;;4936423;29;20415;-68
2022/07/21 04:27:50;;;;;;;0.40;0.30;;;19.00;99.90;;;;;;4934062;29;20407;-68
2022/07/21 04:30:18;;;;;;;0.80;0.80;;;19.10;99.90;;;;;;4935688;29;20423;-68
2022/07/21 04:32:44;;;;;;;0.40;0.30;;;19.10;99.90;;;;;;4942056;29;20504;-68
2022/07/21 04:35:10;;;;;;;0.40;0.30;;;19.10;99.90;;;;;;4943906;29;20897;-68
2022/07/21 04:37:36;;;;;;;0.40;0.30;;;19.10;99.90;;;;;;4935202;29;20876;-68
2022/07/21 04:40:04;;;;;;;0.40;0.30;;;19.10;99.90;;;;;;4935004;29;20414;-68
2022/07/21 04:42:30;;;;;;;0.40;0.30;;;19.00;99.90;;;;;;4934995;29;20427;-68
2022/07/21 04:44:56;;;;;;;0.40;0.40;;;18.90;99.90;;;;;;4918936;29;20431;-68
2022/07/21 04:47:22;;;;;;;0.40;0.30;;;19.00;99.90;;;;;;4935834;29;20404;-68
2022/07/21 04:49:47;;;;;;;1.70;1.60;;;19.00;99.90;;;;;;4934708;29;20410;-68
2022/07/21 04:52:13;;;;;;;0.40;0.30;;;19.00;99.90;;;;;;4935911;29;20418;-68
2022/07/21 04:54:40;;;;;;;0.40;0.30;;;19.10;99.90;;;;;;4934026;29;20463;-68
2022/07/21 04:57:06;;;;;;;0.70;0.70;;;19.10;99.90;;;;;;4935704;29;20395;-68
2022/07/21 04:59:34;;;;;;;0.40;0.30;;;19.10;99.90;;;;;;4933602;29;20418;-68
2022/07/21 05:02:00;;;;;;;0.40;0.20;;;19.10;99.90;;;;;;4935804;29;20407;-68
2022/07/21 05:04:26;;;;;;;0.40;0.30;;;19.10;99.90;;;;;;4934327;29;20906;-68
2022/07/21 05:06:52;;;;;;;0.45;0.45;;;19.10;99.90;;;;;;4935482;29;20388;-68
2022/07/21 05:09:18;;;;;;;0.70;0.70;;;19.10;99.90;;;;;;4935290;29;20425;-68
2022/07/21 05:11:44;;;;;;;0.60;0.60;;;19.20;99.90;;;;;;4932505;29;20423;-68
2022/07/21 05:14:10;;;;;;;0.40;0.20;;;19.20;99.90;;;;;;4934841;29;20575;-68
2022/07/21 05:16:37;;;;;;;0.40;0.40;;;19.20;99.90;;;;;;4933880;29;20411;-68
2022/07/21 05:19:03;;;;;;;0.50;0.50;;;19.30;99.90;;;;;;4933664;29;20904;-68
2022/07/21 05:21:29;;;;;;;0.40;0.30;;;19.20;99.90;;;;;;4934559;29;20412;-68
2022/07/21 05:23:55;;;;;;;0.40;0.40;;;19.30;99.90;;;;;;4934867;29;20418;-68
2022/07/21 05:26:21;;;;;;;0.40;0.30;;;19.40;99.90;;;;;;4934832;29;20400;-69
2022/07/21 05:28:47;;;;;;;0.40;0.20;;;19.40;99.90;;;;;;4935252;29;20388;-68
2022/07/21 05:31:13;;;;;;;0.65;0.65;;;19.40;99.90;;;;;;4935462;29;20495;-69
2022/07/21 05:33:38;;;;;;;0.40;0.30;;;19.50;99.90;;;;;;4933624;29;20869;-69
2022/07/21 05:36:07;;;;;;;0.40;0.20;;;19.50;99.90;;;;;;4934312;29;20404;-68
2022/07/21 05:38:33;;;;;;;0.40;0.30;;;19.60;99.90;;;;;;4934269;29;20479;-68
2022/07/21 05:41:05;;;;;;;0.40;0.20;;;19.60;99.90;;;;;;4934153;29;20522;-68
2022/07/21 05:43:31;;;;;;;0.60;0.60;;;19.60;99.90;;;;;;4928113;29;20390;-69
2022/07/21 05:45:57;;;;;;;1.50;1.20;;;19.70;99.90;;;;;;4940857;29;20483;-69
2022/07/21 05:48:24;;;;;;;0.40;0.40;;;19.70;99.90;;;;;;4911661;29;20763;-69
2022/07/21 05:50:50;;;;;;;0.50;0.50;;;19.70;99.90;;;;;;4929983;29;20661;-69
2022/07/21 05:53:16;;;;;;;0.40;0.30;;;19.70;99.90;;;;;;4934725;29;20454;-69
2022/07/21 05:55:42;;;;;;;0.40;0.30;;;19.70;99.90;;;;;;4930740;29;20432;-69
2022/07/21 05:58:07;;;;;;;0.40;0.20;;;19.90;99.90;;;;;;4933825;29;20395;-69
2022/07/21 06:00:33;;;;;;;0.40;0.40;;;19.90;99.90;;;;;;4935696;29;20403;-69
2022/07/21 06:02:59;;;;;;;0.40;0.25;;;19.80;99.90;;;;;;4938448;29;20399;-69
2022/07/21 06:05:24;;;;;;;0.60;0.50;;;19.90;99.90;;;;;;4933276;29;20458;-69
2022/07/21 06:07:50;;;;;;;0.40;0.30;;;19.90;99.90;;;;;;4933075;29;20519;-69
2022/07/21 06:10:16;;;;;;;0.70;0.50;;;20.00;99.90;;;;;;4933714;29;20410;-69
2022/07/21 06:12:43;;;;;;;0.57;0.57;;;20.10;99.90;;;;;;4932028;29;20399;-70
2022/07/21 06:15:10;;;;;;;0.40;0.30;;;20.20;99.90;;;;;;4917026;29;20499;-69
2022/07/21 06:17:44;;;;;;;0.40;0.40;;;20.20;99.90;;;;;;4916241;29;20403;-69
2022/07/21 06:20:11;;;;;;;0.40;0.30;;;20.40;99.90;;;;;;4934208;29;20764;-68
2022/07/21 06:22:37;;;;;;;0.40;0.40;;;20.50;99.90;;;;;;4933081;29;20458;-68
2022/07/21 06:25:03;;;;;;;0.40;0.30;;;20.90;99.90;;;;;;4916699;29;20415;-69
2022/07/21 06:27:29;;;;;;;0.40;0.30;;;21.00;99.90;;;;;;4934102;29;20384;-71
2022/07/21 06:29:56;;;;;;;0.40;0.20;;;21.30;99.90;;;;;;4932271;29;20920;-70
2022/07/21 06:32:23;;;;;;;0.40;0.30;;;21.40;99.90;;;;;;4933869;29;20419;-70
2022/07/21 06:34:48;;;;;;;0.50;0.50;;;21.50;99.90;;;;;;4931790;29;21101;-70
2022/07/21 06:37:14;;;;;;;0.40;0.30;;;21.60;99.90;;;;;;4933681;29;20388;-70
2022/07/21 06:39:41;;;;;;;0.45;0.45;;;21.50;99.90;;;;;;4932646;29;20407;-69
2022/07/21 06:42:09;;;;;;;0.85;0.85;;;21.60;99.90;;;;;;4920117;29;20414;-69
2022/07/21 06:44:35;;;;;;;0.40;0.30;;;21.70;99.90;;;;;;4932711;29;20399;-70
2022/07/21 06:47:04;;;;;;;0.90;0.80;;;21.70;99.90;;;;;;4933117;29;20431;-70
2022/07/21 06:49:33;;;;;;;1.80;1.10;;;21.70;99.90;;;;;;4932202;29;20460;-70
2022/07/21 06:51:59;;;;;;;0.60;0.60;;;21.70;99.90;;;;;;4932583;29;20435;-70
2022/07/21 06:54:25;;;;;;;0.40;0.30;;;21.70;99.90;;;;;;4931825;29;20411;-69
2022/07/21 06:56:51;;;;;;;0.60;0.60;;;21.60;99.90;;;;;;4932433;29;20463;-68
2022/07/21 06:59:17;;;;;;;0.70;0.70;;;21.60;99.90;;;;;;4932716;29;20531;-69
2022/07/21 07:01:42;;;;;;;0.60;0.60;;;21.70;99.90;;;;;;4931944;29;20423;-69
2022/07/21 07:04:08;;;;;;;0.40;0.30;;;21.90;99.90;;;;;;4933062;29;20447;-69
2022/07/21 07:06:34;;;;;;;0.40;0.40;;;21.90;99.90;;;;;;4931842;29;20490;-70
2022/07/21 07:08:59;;;;;;;0.40;0.40;;;21.90;99.90;;;;;;4934081;29;20387;-69
2022/07/21 07:11:25;;;;;;;0.80;0.80;;;22.00;99.90;;;;;;4932686;29;20528;-68
2022/07/21 07:13:51;;;;;;;0.43;0.38;;;22.00;99.90;;;;;;4947722;29;20382;-69
2022/07/21 07:16:16;;;;;;;1.10;0.90;;;21.90;99.90;;;;;;4939888;29;20404;-69
2022/07/21 07:18:42;;;;;;;0.40;0.32;;;22.00;99.90;;;;;;4932686;29;20872;-68
2022/07/21 07:21:08;;;;;;;0.55;0.55;;;22.10;99.90;;;;;;4932646;29;20404;-68
2022/07/21 07:23:33;;;;;;;0.40;0.40;;;22.10;99.90;;;;;;4934370;29;20399;-69
2022/07/21 07:25:59;;;;;;;0.50;0.50;;;22.10;99.90;;;;;;4937081;29;20396;-68
2022/07/21 07:28:25;;;;;;;0.50;0.50;;;22.10;99.90;;;;;;4937117;29;20789;-69
2022/07/21 07:30:50;;;;;;;0.70;0.70;;;22.10;99.90;;;;;;4936075;29;21156;-69
2022/07/21 07:33:16;;;;;;;0.40;0.40;;;22.30;99.90;;;;;;4936940;29;20420;-70
2022/07/21 07:35:43;;;;;;;0.40;0.30;;;22.40;99.90;;;;;;4936026;29;20426;-70
2022/07/21 07:38:13;;;;;;;1.00;0.90;;;22.50;99.90;;;;;;4936802;29;20458;-69
2022/07/21 07:40:39;;;;;;;0.40;0.20;;;22.60;99.90;;;;;;4935813;29;20399;-69
2022/07/21 07:43:05;;;;;;;0.40;0.20;;;22.50;99.90;;;;;;4936715;29;20487;-69
2022/07/21 07:45:30;;;;;;;1.50;1.40;;;22.60;99.90;;;;;;4934179;29;20407;-70
2022/07/21 07:47:56;;;;;;;0.40;0.20;;;22.70;99.90;;;;;;4935620;29;20742;-70
2022/07/21 07:50:22;;;;;;;1.00;1.00;;;22.70;99.90;;;;;;4935912;29;20868;-71
2022/07/21 07:52:47;;;;;;;1.00;1.00;;;22.80;99.90;;;;;;4946661;29;20452;-71
2022/07/21 07:55:13;;;;;;;1.10;1.00;;;22.80;99.90;;;;;;4944526;29;20510;-68
2022/07/21 07:57:41;;;;;;;0.50;0.50;;;22.70;99.90;;;;;;4935840;29;20444;-70
2022/07/21 08:00:11;;;;;;;0.40;0.30;;;22.90;99.90;;;;;;4936564;29;20438;-71
2022/07/21 08:02:39;;;;;;;0.82;0.63;;;22.90;99.90;;;;;;4935140;29;20458;-70
2022/07/21 08:05:07;;;;;;;0.50;0.50;;;23.00;99.90;;;;;;4936719;29;20399;-71
2022/07/21 08:07:33;;;;;;;0.40;0.30;;;22.90;99.90;;;;;;4934523;29;20446;-70
2022/07/21 08:09:58;;;;;;;0.40;0.20;;;22.90;99.90;;;;;;4935031;29;20824;-69
2022/07/21 08:12:25;;;;;;;1.30;1.20;;;23.00;99.90;;;;;;4935944;29;20458;-68
2022/07/21 08:14:51;;;;;;;0.40;0.30;;;23.20;99.90;;;;;;4935441;29;20407;-67
2022/07/21 08:17:16;;;;;;;1.00;1.00;;;23.20;99.90;;;;;;4936076;29;20915;-69
2022/07/21 08:19:43;;;;;;;0.40;0.40;;;23.20;99.90;;;;;;4934800;29;20388;-67
2022/07/21 08:22:09;;;;;;;0.40;0.40;;;23.10;99.90;;;;;;4937873;29;20408;-69
2022/07/21 08:24:35;;;;;;;0.40;0.30;;;23.00;99.90;;;;;;4937487;29;20425;-69
2022/07/21 08:27:01;;;;;;;0.70;0.50;;;22.90;99.90;;;;;;4955375;29;20389;-69
2022/07/21 08:29:26;;;;;;;1.00;1.00;;;23.10;99.90;;;;;;4940220;29;20757;-70
2022/07/21 08:31:52;;;;;;;0.40;0.30;;;23.30;99.90;;;;;;4935064;29;20628;-71
2022/07/21 08:34:18;;;;;;;0.80;0.80;;;23.40;99.90;;;;;;4934916;29;20952;-70
2022/07/21 08:36:43;;;;;;;0.40;0.37;;;23.50;99.90;;;;;;4954316;29;20425;-69
2022/07/21 08:39:09;;;;;;;0.40;0.20;;;23.40;99.90;;;;;;4948312;29;20392;-69
2022/07/21 08:41:37;;;;;;;0.40;0.20;;;23.40;99.90;;;;;;4935188;29;20396;-70
2022/07/21 08:44:03;;;;;;;0.40;0.30;;;23.20;99.90;;;;;;4934449;29;20495;-69
2022/07/21 08:46:31;;;;;;;0.40;0.30;;;23.30;99.90;;;;;;4935571;29;20387;-69
2022/07/21 08:48:59;;;;;;;0.40;0.30;;;23.30;99.90;;;;;;4934569;29;20400;-71
2022/07/21 08:51:25;;;;;;;0.40;0.20;;;23.20;99.90;;;;;;4942888;29;20447;-70
2022/07/21 08:53:51;;;;;;;0.80;0.80;;;23.00;99.90;;;;;;4934369;29;20411;-69
2022/07/21 08:56:17;;;;;;;0.40;0.30;;;23.10;99.90;;;;;;4934149;29;20427;-70
2022/07/21 08:58:43;;;;;;;0.50;0.40;;;23.30;99.90;;;;;;4945893;29;20405;-70
2022/07/21 09:01:09;;;;;;;0.40;0.30;;;23.40;99.90;;;;;;4954927;29;20437;-70
2022/07/21 09:03:35;;;;;;;0.40;0.20;;;23.50;99.90;;;;;;4952811;29;20457;-70
2022/07/21 09:06:04;;;;;;;0.50;0.30;;;23.60;99.90;;;;;;4954335;29;20394;-69
2022/07/21 09:08:36;;;;;;;1.10;0.70;;;23.60;99.90;;;;;;4954288;29;20403;-69
2022/07/21 09:11:16;;;;;;;0.40;0.30;;;23.70;99.90;;;;;;4954317;29;20418;-69
2022/07/21 09:13:43;;;;;;;1.00;1.00;;;23.50;99.90;;;;;;4953512;29;20398;-69
2022/07/21 09:16:10;;;;;;;0.40;0.30;;;23.50;99.90;;;;;;4954137;29;20390;-70
2022/07/21 09:18:50;;;;;;;1.00;0.70;;;23.70;99.90;;;;;;4953058;29;20409;-70
2022/07/21 09:21:17;;;;;;;0.50;0.50;;;23.90;99.90;;;;;;4954156;29;20482;-69
2022/07/21 09:23:43;;;;;;;0.40;0.40;;;24.00;99.90;;;;;;4953202;29;20732;-68
2022/07/21 09:26:09;;;;;;;0.40;0.20;;;23.90;99.90;;;;;;4954064;29;20437;-70
2022/07/21 09:28:35;;;;;;;0.50;0.50;;;23.80;99.90;;;;;;4953807;29;20440;-71
2022/07/21 09:31:06;;;;;;;0.40;0.40;;;23.80;99.90;;;;;;4954398;29;20425;-70
2022/07/21 09:33:41;;;;;;;0.40;0.38;;;23.90;99.90;;;;;;4952968;29;20410;-71
2022/07/21 09:36:09;;;;;;;0.40;0.30;;;24.20;99.90;;;;;;4954081;29;20393;-71
2022/07/21 09:38:39;;;;;;;0.40;0.20;;;24.20;99.90;;;;;;4952388;29;20413;-69
2022/07/21 09:41:07;;;;;;;0.50;0.50;;;24.20;99.90;;;;;;4954143;29;20787;-69
2022/07/21 09:43:45;;;;;;;0.70;0.70;;;24.10;99.90;;;;;;4953736;29;20386;-69
2022/07/21 09:46:20;;;;;;;0.40;0.30;;;24.00;99.90;;;;;;4951784;28;20432;-69
2022/07/21 09:48:48;;;;;;;0.80;0.80;;;24.20;99.90;;;;;;4952989;29;20382;-68
2022/07/21 09:51:26;;;;;;;0.75;0.75;;;24.40;99.90;;;;;;4953643;29;20410;-69
2022/07/21 09:53:59;;;;;;;0.60;0.60;;;24.30;99.90;;;;;;4952474;29;20424;-68
2022/07/21 09:56:28;;;;;;;0.40;0.30;;;24.30;99.90;;;;;;4945938;29;20458;-69
2022/07/21 09:58:56;;;;;;;1.10;0.60;;;24.00;99.90;;;;;;4933245;29;20391;-69
2022/07/21 10:01:22;;;;;;;0.40;0.40;;;24.00;99.90;;;;;;4934385;29;20391;-69
2022/07/21 10:03:49;;;;;;;0.70;0.35;;;24.20;99.90;;;;;;4933178;29;20390;-69
2022/07/21 10:06:17;;;;;;;0.40;0.30;;;24.40;99.90;;;;;;4934462;29;20479;-68
2022/07/21 10:08:45;;;;;;;0.60;0.50;;;24.40;99.90;;;;;;4932694;29;20428;-69
2022/07/21 10:11:11;;;;;;;0.40;0.30;;;24.50;99.90;;;;;;4934119;29;20494;-69
2022/07/21 10:13:38;;;;;;;0.40;0.30;;;24.70;99.90;;;;;;4933167;29;20948;-70
2022/07/21 10:16:04;;;;;;;0.40;0.35;;;24.70;99.90;;;;;;4933777;29;20400;-69
2022/07/21 10:18:39;;;;;;;0.40;0.30;;;24.80;99.90;;;;;;4934026;29;20427;-68
2022/07/21 10:21:13;;;;;;;0.55;0.50;;;24.90;99.90;;;;;;4933726;29;20394;-68
2022/07/21 10:23:42;;;;;;;0.40;0.40;;;24.80;99.90;;;;;;4933094;29;20426;-69
2022/07/21 10:26:10;;;;;;;0.40;0.30;;;24.80;99.90;;;;;;4934141;29;20745;-69
2022/07/21 10:28:36;;;;;;;0.40;0.25;;;24.70;99.90;;;;;;4932850;29;20388;-69
2022/07/21 10:31:17;;;;;;;0.90;0.80;;;24.60;99.90;;;;;;4934110;29;20812;-69
2022/07/21 10:33:43;;;;;;;0.43;0.32;;;24.50;99.90;;;;;;4933106;29;20400;-69
2022/07/21 10:36:09;;;;;;;0.40;0.30;;;24.70;99.90;;;;;;4933832;29;20394;-69
2022/07/21 10:38:36;;;;;;;0.40;0.30;;;24.90;99.90;;;;;;4933556;29;20388;-69
2022/07/21 10:41:05;;;;;;;0.40;0.30;;;25.20;99.90;;;;;;4933586;29;20392;-69
2022/07/21 10:43:31;;;;;;;0.50;0.30;;;25.30;99.90;;;;;;4933632;29;20407;-69
2022/07/21 10:45:59;;;;;;;0.40;0.20;;;25.40;99.90;;;;;;4932570;29;20399;-69
2022/07/21 10:48:36;;;;;;;0.40;0.40;;;25.30;99.90;;;;;;4933728;29;20396;-69
2022/07/21 10:51:07;;;;;;;0.40;0.30;;;25.50;99.90;;;;;;4933372;29;20503;-69
2022/07/21 10:53:33;;;;;;;0.47;0.47;;;25.90;95.60;;;;;;4933286;29;20391;-67
2022/07/21 10:55:58;;;;;;;0.40;0.20;;;25.80;92.50;;;;;;4931920;29;20411;-69
2022/07/21 10:58:34;;;;;;;0.50;0.40;;;25.70;92.50;;;;;;4932627;29;20427;-69
2022/07/21 11:01:15;;;;;;;0.40;0.30;;;25.70;94.70;;;;;;4933308;29;20408;-69
2022/07/21 11:03:43;;;;;;;0.40;0.20;;;25.80;94.00;;;;;;4932497;29;20410;-69
2022/07/21 11:06:24;;;;;;;0.40;0.30;;;25.90;95.50;;;;;;4933593;29;20388;-69
2022/07/21 11:09:02;;;;;;;0.40;0.30;;;26.00;96.10;;;;;;4932287;29;20388;-69
2022/07/21 11:11:29;;;;;;;0.43;0.32;;;26.00;94.20;;;;;;4933154;29;20776;-68
2022/07/21 11:14:12;;;;;;;0.60;0.60;;;25.90;94.80;;;;;;4931337;29;21072;-69
2022/07/21 11:16:48;;;;;;;0.40;0.30;;;25.60;96.30;;;;;;4932404;29;20749;-69
2022/07/21 11:19:40;;;;;;;0.40;0.30;;;25.40;98.20;;;;;;4933559;29;20415;-69
2022/07/21 11:22:08;;;;;;;0.50;0.40;;;25.40;97.90;;;;;;4933349;29;20427;-69
2022/07/21 11:24:34;;;;;;;0.40;0.40;;;25.40;96.50;;;;;;4932893;29;20404;-69
2022/07/21 11:27:13;;;;;;;1.20;1.20;;;25.90;94.90;;;;;;4932501;29;20788;-69
2022/07/21 11:29:40;;;;;;;0.40;0.20;;;26.00;94.20;;;;;;4932556;29;20393;-69
2022/07/21 11:32:07;;;;;;;0.40;0.30;;;26.40;92.00;;;;;;4933150;29;20426;-68
2022/07/21 11:34:52;;;;;;;0.40;0.20;;;26.90;90.50;;;;;;4931960;29;20402;-69
2022/07/21 11:37:27;;;;;;;0.40;0.20;;;27.30;92.70;;;;;;4932620;29;20884;-69
2022/07/21 11:39:52;;;;;;;0.60;0.60;;;27.60;91.10;;;;;;4932375;29;20386;-69
2022/07/21 11:42:18;;;;;;;0.40;0.30;;;27.90;89.10;;;;;;4933235;29;20391;-69
2022/07/21 11:44:44;;;;;;;0.40;0.30;;;28.20;90.10;;;;;;4931704;29;20391;-69
2022/07/21 11:47:13;;;;;;;0.40;0.20;;;28.90;81.10;;;;;;4932841;29;20392;-68
2022/07/21 11:49:39;;;;;;;0.40;0.20;;;29.50;73.60;;;;;;4932563;29;20420;-70
2022/07/21 11:52:08;;;;;;;0.40;0.20;;;29.40;73.50;;;;;;4932785;29;20427;-69
2022/07/21 11:54:42;;;;;;;0.40;0.20;;;29.80;75.70;;;;;;4932503;29;20404;-69
2022/07/21 11:57:08;;;;;;;0.40;0.30;;;30.60;69.20;;;;;;4932919;29;20392;-70
2022/07/21 11:59:36;;;;;;;0.40;0.20;;;30.50;68.70;;;;;;4932774;29;20384;-70
2022/07/21 12:02:01;;;;;;;0.40;0.20;;;30.80;64.30;;;;;;4932746;29;20407;-70
2022/07/21 12:04:46;;;;;;;0.40;0.20;;;30.70;66.80;;;;;;4932876;29;20391;-70
2022/07/21 12:07:32;;;;;;;0.40;0.20;;;30.90;66.30;;;;;;4933015;29;20478;-70
2022/07/21 12:10:00;;;;;;;0.40;0.30;;;31.90;59.90;;;;;;4934646;29;20472;-69
2022/07/21 12:12:43;;;;;;;0.40;0.20;;;31.40;60.50;;;;;;4919341;29;20955;-70
2022/07/21 12:15:19;;;;;;;0.40;0.20;;;31.40;60.00;;;;;;4936342;29;20421;-71
2022/07/21 12:17:45;;;;;;;0.40;0.20;;;31.40;59.60;;;;;;4935586;29;20396;-70
2022/07/21 12:20:12;;;;;;;0.40;0.20;;;31.10;59.10;;;;;;4935884;29;20404;-70
2022/07/21 12:22:46;;;;;;;0.40;0.30;;;30.90;62.50;;;;;;4936078;29;20392;-70
2022/07/21 12:25:16;;;;;;;0.40;0.20;;;30.70;62.30;;;;;;4935855;29;20403;-69
2022/07/21 12:27:49;;;;;;;0.40;0.20;;;31.90;56.70;;;;;;4935263;29;20729;-70
2022/07/21 12:30:33;;;;;;;0.40;0.30;;;31.80;58.60;;;;;;4935694;29;20402;-70
2022/07/21 12:33:15;;;;;;;0.40;0.20;;;32.00;59.10;;;;;;4935265;29;20788;-70
2022/07/21 12:35:48;;;;;;;0.40;0.20;;;32.20;56.70;;;;;;4935552;29;20753;-71
2022/07/21 12:38:16;;;;;;;0.40;0.30;;;32.40;54.80;;;;;;4936157;29;20394;-70
2022/07/21 12:40:48;;;;;;;0.40;0.20;;;32.00;54.30;;;;;;4934958;29;20403;-70
2022/07/21 12:43:19;;;;;;;0.60;0.60;;;31.80;56.00;;;;;;4935979;29;20395;-70
2022/07/21 12:46:17;;;;;;;0.40;0.20;;;31.50;56.10;;;;;;4934931;29;20404;-71
2022/07/21 12:48:43;;;;;;;0.40;0.22;;;31.60;57.50;;;;;;4919831;29;20407;-70
2022/07/21 12:51:14;;;;;;;0.40;0.20;;;31.90;59.00;;;;;;4935724;29;20415;-70
2022/07/21 12:53:41;;;;;;;0.40;0.40;;;31.80;58.60;;;;;;4935386;29;20399;-70